Time;durP1;ratioP1;P1;durP2;ratioP2;P2;SDS_P1;SDS_P2;PMS_P1;PMS_P2;Temp;Humidity;BMP_temperature;BMP_pressure;BME280_temperature;BME280_humidity;BME280_pressure;Samples;Min_cycle;Max_cycle;Signal;HPM_P1;HPM_P2
2021/01/29 06:45:27;;;;;;;0.90;0.60;;;8.90;99.90;;;;;;5093184;28;21365;-76
2021/01/29 06:48:08;;;;;;;1.02;0.70;;;9.00;99.90;;;;;;5090415;28;20564;-76
2021/01/29 06:51:22;;;;;;;0.90;0.60;;;9.30;99.90;;;;;;5112896;28;20170;-79
2021/01/29 06:54:16;;;;;;;1.00;0.70;;;9.60;99.90;;;;;;5091346;28;20722;-79
2021/01/29 06:57:06;;;;;;;1.75;0.70;;;9.90;99.90;;;;;;5087448;28;20558;-80
2021/01/29 07:00:07;;;;;;;2.10;1.10;;;10.20;99.90;;;;;;5088176;28;20805;-82
2021/01/29 07:02:53;;;;;;;1.20;0.80;;;10.40;99.90;;;;;;5104584;28;20244;-79
2021/01/29 07:05:46;;;;;;;1.23;0.60;;;10.60;99.90;;;;;;5079595;28;20277;-79
2021/01/29 07:08:38;;;;;;;1.13;0.60;;;10.70;99.90;;;;;;5108673;28;20213;-79
2021/01/29 07:11:36;;;;;;;1.55;1.02;;;10.90;99.90;;;;;;5108689;28;20193;-79
2021/01/29 07:14:43;;;;;;;1.38;0.70;;;11.00;99.90;;;;;;5108217;28;20181;-80
2021/01/29 07:17:27;;;;;;;1.00;0.60;;;11.20;99.90;;;;;;5107481;28;20190;-80
2021/01/29 07:20:25;;;;;;;0.95;0.50;;;11.20;99.90;;;;;;5087693;28;20163;-79
2021/01/29 07:23:28;;;;;;;1.20;0.60;;;11.30;99.90;;;;;;5088319;28;20241;-79
2021/01/29 07:26:06;;;;;;;1.17;0.70;;;11.30;99.90;;;;;;5088191;28;20188;-80
2021/01/29 07:29:05;;;;;;;2.75;1.10;;;11.40;99.90;;;;;;5091128;28;20681;-77
2021/01/29 07:31:46;;;;;;;1.33;1.10;;;11.40;99.90;;;;;;5088133;28;20172;-79
2021/01/29 07:34:24;;;;;;;4.50;1.05;;;11.50;99.90;;;;;;5088333;28;20543;-79
2021/01/29 07:37:44;;;;;;;2.05;0.80;;;11.50;99.90;;;;;;5088825;28;20175;-78
2021/01/29 07:40:32;;;;;;;1.10;0.70;;;11.50;99.90;;;;;;5087539;28;20267;-78
2021/01/29 07:43:07;;;;;;;5.40;0.77;;;11.50;99.90;;;;;;5088586;28;20172;-78
2021/01/29 07:45:59;;;;;;;1.35;0.70;;;11.50;99.90;;;;;;5087891;28;20212;-78
2021/01/29 07:48:53;;;;;;;1.17;0.77;;;11.50;99.90;;;;;;5087724;28;20183;-79
2021/01/29 07:51:40;;;;;;;2.00;0.80;;;11.50;99.90;;;;;;5087915;28;20170;-78
2021/01/29 07:54:12;;;;;;;1.73;0.82;;;11.50;99.90;;;;;;5068140;28;20195;-79
2021/01/29 07:56:38;;;;;;;1.30;0.80;;;11.50;99.90;;;;;;5054557;28;20172;-78
2021/01/29 07:59:27;;;;;;;2.33;0.70;;;11.50;99.90;;;;;;5053442;28;20189;-78
2021/01/29 08:02:22;;;;;;;1.67;0.80;;;11.50;99.90;;;;;;5057256;28;20562;-79
2021/01/29 08:04:58;;;;;;;3.05;0.68;;;11.50;99.90;;;;;;5058186;28;20212;-79
2021/01/29 08:07:35;;;;;;;1.15;0.60;;;11.50;99.90;;;;;;5053971;28;20173;-79
2021/01/29 08:10:09;;;;;;;2.30;0.80;;;11.40;99.90;;;;;;5053865;28;20276;-79
2021/01/29 08:12:50;;;;;;;1.73;0.80;;;11.50;99.90;;;;;;5053964;28;20279;-79
2021/01/29 08:15:29;;;;;;;5.18;0.93;;;11.40;99.90;;;;;;5052887;28;20165;-79
2021/01/29 08:18:06;;;;;;;6.55;1.25;;;11.40;99.90;;;;;;5052261;28;20193;-78
2021/01/29 08:21:09;;;;;;;12.23;1.80;;;11.40;99.90;;;;;;5054199;28;20256;-78
2021/01/29 08:23:59;;;;;;;5.32;1.25;;;11.40;99.90;;;;;;5054248;28;20554;-78
2021/01/29 08:26:49;;;;;;;12.77;1.85;;;11.40;99.90;;;;;;5053804;28;20256;-78
2021/01/29 08:29:40;;;;;;;12.73;3.05;;;11.50;99.90;;;;;;5052107;28;20644;-79
2021/01/29 08:33:04;;;;;;;7.53;1.65;;;11.50;99.90;;;;;;5061285;28;20189;-79
2021/01/29 08:36:01;;;;;;;12.77;2.20;;;11.50;99.90;;;;;;5054731;28;20172;-79
2021/01/29 08:38:42;;;;;;;10.05;2.70;;;11.50;99.90;;;;;;5052916;28;20192;-78
2021/01/29 08:41:41;;;;;;;15.57;3.35;;;11.50;99.90;;;;;;5054118;28;20157;-78
2021/01/29 08:44:19;;;;;;;6.05;2.65;;;11.60;99.90;;;;;;5052128;28;20196;-79
2021/01/29 08:46:52;;;;;;;12.27;2.45;;;11.60;99.90;;;;;;5053212;28;20201;-78
2021/01/29 08:49:36;;;;;;;12.60;3.00;;;11.60;99.90;;;;;;5052909;28;20276;-78
2021/01/29 08:52:23;;;;;;;13.93;4.40;;;11.60;99.90;;;;;;5059440;28;20170;-79
2021/01/29 08:54:55;;;;;;;10.00;2.60;;;11.70;99.90;;;;;;5093430;28;20183;-78
2021/01/29 08:57:24;;;;;;;9.35;2.55;;;11.60;99.90;;;;;;5093006;28;20209;-78
2021/01/29 08:59:50;;;;;;;6.50;2.30;;;11.60;99.90;;;;;;5075719;28;20192;-79
2021/01/29 09:02:26;;;;;;;10.43;2.25;;;11.70;99.90;;;;;;5073033;28;20168;-78
2021/01/29 09:04:55;;;;;;;12.63;3.33;;;11.60;99.90;;;;;;5071523;28;20199;-78
2021/01/29 09:07:34;;;;;;;14.95;3.05;;;11.70;99.90;;;;;;5071683;28;20180;-79
2021/01/29 09:10:38;;;;;;;17.63;4.03;;;11.70;99.90;;;;;;5071577;28;20164;-78
2021/01/29 09:13:07;;;;;;;9.82;2.80;;;11.70;99.90;;;;;;5071736;28;20172;-77
2021/01/29 09:15:48;;;;;;;9.05;2.33;;;11.80;99.90;;;;;;5072883;28;20249;-78
2021/01/29 09:18:26;;;;;;;11.43;2.78;;;11.80;99.90;;;;;;5075821;28;20195;-78
2021/01/29 09:21:13;;;;;;;10.50;2.53;;;11.90;99.90;;;;;;5073050;28;20615;-78
2021/01/29 09:23:54;;;;;;;7.80;2.80;;;11.90;99.90;;;;;;5072480;28;20631;-79
2021/01/29 09:27:05;;;;;;;10.57;2.60;;;11.90;99.90;;;;;;5071654;28;20168;-79
2021/01/29 09:29:56;;;;;;;7.20;1.75;;;12.00;99.90;;;;;;5069557;28;20199;-78
2021/01/29 09:32:45;;;;;;;9.68;2.65;;;12.10;99.90;;;;;;5053284;28;20191;-79
2021/01/29 09:35:18;;;;;;;13.15;2.38;;;12.10;99.90;;;;;;5071825;28;20237;-76
2021/01/29 09:37:54;;;;;;;12.13;2.63;;;12.10;99.90;;;;;;5071922;28;20225;-77
2021/01/29 09:40:35;;;;;;;7.72;1.90;;;12.10;99.90;;;;;;5070913;28;20621;-77
2021/01/29 09:43:14;;;;;;;16.55;3.08;;;12.10;99.90;;;;;;5072033;28;20589;-77
2021/01/29 09:45:43;;;;;;;10.02;3.08;;;12.10;99.90;;;;;;5072285;28;20168;-77
2021/01/29 09:48:14;;;;;;;9.70;2.08;;;12.20;99.90;;;;;;5071573;28;20603;-77
2021/01/29 09:50:41;;;;;;;12.52;2.03;;;12.10;99.90;;;;;;5070808;28;20706;-77
2021/01/29 09:53:09;;;;;;;16.77;2.40;;;12.20;99.90;;;;;;5084211;28;20259;-77
2021/01/29 09:56:18;;;;;;;7.15;2.28;;;12.20;99.90;;;;;;5092876;28;20579;-76
2021/01/29 09:59:15;;;;;;;14.93;3.33;;;12.20;99.90;;;;;;5088949;28;20192;-76
2021/01/29 10:01:46;;;;;;;6.70;1.98;;;12.30;99.90;;;;;;5092377;28;20156;-75
2021/01/29 10:04:34;;;;;;;13.60;4.35;;;12.30;99.90;;;;;;5090952;28;20229;-76
2021/01/29 10:07:05;;;;;;;14.30;2.80;;;12.30;99.90;;;;;;5091104;28;20171;-75
2021/01/29 10:09:36;;;;;;;8.07;1.70;;;12.40;99.90;;;;;;5091432;28;20618;-75
2021/01/29 10:12:24;;;;;;;9.73;3.33;;;12.50;99.90;;;;;;5092713;28;20184;-76
2021/01/29 10:15:25;;;;;;;10.32;2.90;;;12.60;99.90;;;;;;5092357;28;20200;-79
2021/01/29 10:18:18;;;;;;;12.18;2.88;;;12.70;99.90;;;;;;5082764;28;20191;-79
2021/01/29 10:20:44;;;;;;;18.27;3.28;;;12.70;99.90;;;;;;5091944;28;20566;-80
2021/01/29 10:23:41;;;;;;;14.32;3.30;;;12.80;99.90;;;;;;5092070;28;20194;-79
2021/01/29 10:26:26;;;;;;;18.02;3.95;;;13.00;99.90;;;;;;5092343;28;20180;-79
2021/01/29 10:29:06;;;;;;;13.33;2.97;;;13.10;99.90;;;;;;5091564;28;20198;-79
2021/01/29 13:26:25;;;;;;;7.35;3.10;;;10.60;99.90;;;;;;5116382;27;20885;-77
2021/01/29 13:29:26;;;;;;;4.80;1.63;;;10.70;99.90;;;;;;5091871;28;20200;-77
2021/01/29 13:32:06;;;;;;;6.20;1.88;;;11.00;99.90;;;;;;5111620;28;20504;-77
2021/01/29 13:34:39;;;;;;;5.28;1.10;;;11.30;99.90;;;;;;5112925;28;20669;-76
2021/01/29 13:37:13;;;;;;;9.77;2.85;;;11.60;99.90;;;;;;5109958;28;20221;-77
2021/01/29 13:39:41;;;;;;;6.35;2.72;;;11.80;99.90;;;;;;5109729;28;20220;-77
2021/01/29 13:42:20;;;;;;;4.90;1.88;;;12.00;99.90;;;;;;5118417;28;20178;-77
2021/01/29 13:44:53;;;;;;;7.38;2.30;;;12.20;99.90;;;;;;5094675;28;20251;-77
2021/01/29 13:47:27;;;;;;;7.63;2.60;;;12.40;99.90;;;;;;5129660;28;20593;-77
2021/01/29 13:49:53;;;;;;;11.07;2.63;;;12.60;99.90;;;;;;5129282;28;20602;-77
2021/01/29 13:52:26;;;;;;;7.15;1.83;;;12.80;99.90;;;;;;5130012;28;20170;-78
2021/01/29 13:54:53;;;;;;;7.53;1.92;;;12.90;99.90;;;;;;5111621;28;20175;-77
2021/01/29 13:57:35;;;;;;;8.18;2.42;;;13.10;99.90;;;;;;5129358;28;20170;-78
2021/01/29 14:00:22;;;;;;;8.20;1.83;;;13.20;99.90;;;;;;5112616;28;20245;-77
2021/01/29 14:03:28;;;;;;;8.75;2.67;;;13.40;99.90;;;;;;5108770;28;20565;-75
2021/01/29 14:05:54;;;;;;;11.13;2.00;;;13.50;99.90;;;;;;5108883;28;20163;-76
2021/01/29 14:08:20;;;;;;;10.50;2.60;;;13.70;99.90;;;;;;5073086;28;20604;-76
2021/01/29 14:11:01;;;;;;;12.27;2.90;;;13.70;99.90;;;;;;5090238;28;20167;-77
2021/01/29 14:13:53;;;;;;;10.10;3.50;;;13.70;99.90;;;;;;5090506;28;20590;-77
2021/01/29 14:16:54;;;;;;;15.40;3.97;;;13.80;99.90;;;;;;5094349;28;20646;-76
2021/01/29 14:19:48;;;;;;;7.23;2.37;;;13.70;99.90;;;;;;5034845;28;21175;-76
2021/01/29 14:22:14;;;;;;;5.43;2.17;;;13.70;99.90;;;;;;5108240;28;20557;-76
2021/01/29 14:24:48;;;;;;;8.13;2.67;;;13.60;99.90;;;;;;5089891;28;20622;-77
2021/01/29 14:27:35;;;;;;;11.80;3.00;;;13.50;99.90;;;;;;5108094;28;20212;-76
2021/01/29 14:30:27;;;;;;;3.30;2.00;;;13.30;99.90;;;;;;5089887;28;20572;-77
2021/01/29 14:33:06;;;;;;;7.82;2.85;;;13.20;99.90;;;;;;5113348;28;20568;-76
2021/01/29 14:35:59;;;;;;;6.63;2.07;;;13.10;99.90;;;;;;5126705;28;20218;-75
2021/01/29 14:38:40;;;;;;;8.68;1.80;;;13.00;99.90;;;;;;5114277;28;20616;-76
2021/01/29 14:41:41;;;;;;;7.05;1.77;;;12.90;99.90;;;;;;5114680;28;20676;-76
2021/01/29 14:44:30;;;;;;;6.47;1.00;;;12.70;99.90;;;;;;5052247;28;20653;-76
2021/01/29 14:47:01;;;;;;;4.13;1.55;;;12.60;99.90;;;;;;5114545;28;20178;-77
2021/01/29 14:49:49;;;;;;;5.85;1.35;;;12.40;99.90;;;;;;5096290;28;20202;-76
2021/01/29 14:52:17;;;;;;;6.15;1.58;;;12.40;99.90;;;;;;5118144;28;20506;-75
2021/01/29 14:55:07;;;;;;;5.50;1.42;;;12.30;99.90;;;;;;5096251;28;20194;-75
2021/01/29 14:57:43;;;;;;;7.47;2.33;;;12.20;99.90;;;;;;5114122;28;20159;-76
2021/01/29 15:00:14;;;;;;;11.02;3.17;;;12.10;99.90;;;;;;5114241;28;20166;-76
2021/01/29 15:03:02;;;;;;;8.15;3.17;;;12.10;99.90;;;;;;5096516;28;20590;-76
2021/01/29 15:05:48;;;;;;;3.92;2.13;;;12.10;99.90;;;;;;5114396;28;20285;-75
2021/01/29 15:08:18;;;;;;;3.90;1.25;;;12.00;99.90;;;;;;5113793;28;20277;-75
2021/01/29 15:10:47;;;;;;;2.72;0.90;;;12.00;99.90;;;;;;5096457;28;20252;-76
2021/01/29 15:13:16;;;;;;;4.50;1.20;;;12.00;99.90;;;;;;5096353;28;20200;-76
2021/01/29 15:15:46;;;;;;;4.50;1.20;;;11.90;99.90;;;;;;5114321;28;20198;-75
2021/01/29 15:18:17;;;;;;;1.58;0.80;;;11.90;99.90;;;;;;5113496;28;20588;-76
2021/01/29 15:20:49;;;;;;;3.33;0.90;;;11.80;99.90;;;;;;5114235;28;20171;-76
2021/01/29 15:23:28;;;;;;;2.47;0.85;;;11.70;99.90;;;;;;5095570;28;20175;-76
2021/01/29 15:25:53;;;;;;;3.67;1.35;;;11.70;99.90;;;;;;5076846;28;20209;-76
2021/01/29 15:28:30;;;;;;;3.30;0.97;;;11.60;99.90;;;;;;5093918;28;20215;-75
2021/01/29 15:31:00;;;;;;;4.30;1.35;;;11.50;99.90;;;;;;5094275;28;20175;-76
2021/01/29 15:33:29;;;;;;;2.13;1.00;;;11.50;99.90;;;;;;5103135;28;20296;-76
2021/01/29 15:36:13;;;;;;;5.18;1.27;;;11.50;99.90;;;;;;5095742;28;20237;-76
2021/01/29 15:38:55;;;;;;;4.03;1.17;;;11.50;99.90;;;;;;5112994;28;20198;-76
2021/01/29 15:41:39;;;;;;;5.10;1.27;;;11.50;99.90;;;;;;5113578;28;20163;-75
2021/01/29 15:44:08;;;;;;;5.40;1.60;;;11.50;99.90;;;;;;5078132;28;20639;-76
2021/01/29 15:46:45;;;;;;;5.70;1.58;;;11.50;99.90;;;;;;5113432;28;20163;-76
2021/01/29 15:49:17;;;;;;;8.77;2.20;;;11.50;99.90;;;;;;5094119;28;20179;-76
2021/01/29 15:51:46;;;;;;;6.18;2.22;;;11.50;99.90;;;;;;5113205;28;20163;-75
2021/01/29 15:54:24;;;;;;;5.60;2.03;;;11.50;99.90;;;;;;5113065;28;20186;-75
2021/01/29 15:57:03;;;;;;;9.38;4.22;;;11.50;99.90;;;;;;5113362;28;20496;-75
2021/01/29 15:59:38;;;;;;;9.25;4.75;;;11.50;99.90;;;;;;5112748;28;20195;-76
2021/01/29 16:02:07;;;;;;;7.45;3.45;;;11.50;99.90;;;;;;5113330;28;20171;-76
2021/01/29 16:04:52;;;;;;;10.88;4.65;;;11.60;99.90;;;;;;5113092;28;20723;-76
2021/01/29 16:07:21;;;;;;;3.20;2.50;;;11.60;99.90;;;;;;5114295;28;20623;-76
2021/01/29 16:09:47;;;;;;;6.93;2.63;;;11.60;99.90;;;;;;5112407;28;20270;-75
2021/01/29 16:12:30;;;;;;;5.77;3.13;;;11.50;99.90;;;;;;5094973;28;20249;-75
2021/01/29 16:15:11;;;;;;;11.85;5.22;;;11.50;99.90;;;;;;5094381;28;20199;-75
2021/01/29 16:17:48;;;;;;;15.90;8.98;;;11.50;99.90;;;;;;5094380;28;20170;-75
2021/01/29 16:20:28;;;;;;;9.95;5.25;;;11.50;99.90;;;;;;5112470;28;20169;-75
2021/01/29 16:22:59;;;;;;;7.38;3.38;;;11.50;99.90;;;;;;5113061;28;20241;-75
2021/01/29 16:25:26;;;;;;;7.50;1.88;;;11.50;99.90;;;;;;5112523;28;20183;-75
2021/01/29 16:27:53;;;;;;;5.25;1.45;;;11.40;99.90;;;;;;5112238;28;20194;-76
2021/01/29 16:30:26;;;;;;;6.55;1.35;;;11.40;99.90;;;;;;5112521;28;20555;-76
2021/01/29 16:32:59;;;;;;;2.85;1.85;;;11.40;99.90;;;;;;5089115;28;20179;-75
2021/01/29 16:35:39;;;;;;;6.55;2.25;;;11.30;99.90;;;;;;5092070;28;20971;-76
2021/01/29 16:38:06;;;;;;;4.57;2.97;;;11.30;99.90;;;;;;5056961;28;20201;-77
2021/01/29 16:40:39;;;;;;;2.90;1.85;;;11.30;99.90;;;;;;5073739;28;20164;-76
2021/01/29 16:43:17;;;;;;;7.75;1.95;;;11.30;99.90;;;;;;5057337;28;20881;-76
2021/01/29 16:45:58;;;;;;;3.42;1.10;;;11.20;99.90;;;;;;5091897;28;20214;-75
2021/01/29 16:48:31;;;;;;;3.55;1.05;;;11.20;99.90;;;;;;5091472;28;20282;-76
2021/01/29 16:51:11;;;;;;;1.73;0.70;;;11.20;99.90;;;;;;5040882;28;20202;-75
2021/01/29 16:53:39;;;;;;;3.72;1.10;;;11.20;99.90;;;;;;5092109;28;20170;-75
2021/01/29 16:56:15;;;;;;;4.88;2.08;;;11.10;99.90;;;;;;5091580;28;20507;-76
2021/01/29 16:58:44;;;;;;;3.40;2.63;;;11.00;99.90;;;;;;5091370;28;20183;-75
2021/01/29 17:01:13;;;;;;;4.57;2.10;;;11.00;99.90;;;;;;5073582;28;20164;-76
2021/01/29 17:03:48;;;;;;;4.60;2.15;;;10.90;99.90;;;;;;5091969;28;20172;-76
2021/01/29 17:06:23;;;;;;;8.45;3.65;;;10.80;99.90;;;;;;5091674;28;20168;-76
2021/01/29 17:09:50;;;;;;;18.85;11.65;;;10.70;99.90;;;;;;5089821;28;20724;-76
2021/01/29 17:12:25;;;;;;;14.77;9.85;;;10.50;99.90;;;;;;5074103;28;20183;-78
2021/01/29 17:14:52;;;;;;;8.40;6.00;;;10.60;99.90;;;;;;5073429;28;20207;-75
2021/01/29 17:17:18;;;;;;;10.50;5.60;;;10.60;99.90;;;;;;5091524;28;20155;-75
2021/01/29 17:19:44;;;;;;;12.07;5.07;;;10.70;99.90;;;;;;5073067;28;20668;-75
2021/01/29 17:22:41;;;;;;;7.80;4.05;;;10.70;99.90;;;;;;5091543;28;20163;-78
2021/01/29 17:25:30;;;;;;;11.77;6.85;;;10.70;99.90;;;;;;5073235;28;20179;-77
2021/01/29 17:28:03;;;;;;;8.93;5.65;;;10.80;99.90;;;;;;5073060;28;20191;-77
2021/01/29 17:30:39;;;;;;;12.50;5.90;;;10.80;99.90;;;;;;5073263;28;20624;-74
2021/01/29 17:33:15;;;;;;;7.32;4.05;;;10.80;99.90;;;;;;5085716;28;20167;-77
2021/01/29 17:35:44;;;;;;;5.88;2.67;;;10.80;99.90;;;;;;5064443;28;21173;-75
2021/01/29 17:38:34;;;;;;;4.15;1.88;;;10.90;99.90;;;;;;5065913;28;20226;-77
2021/01/29 17:41:29;;;;;;;3.70;1.63;;;10.90;99.90;;;;;;5076028;28;20275;-77
2021/01/29 17:44:00;;;;;;;4.65;1.50;;;10.90;99.90;;;;;;5065087;28;20168;-77
2021/01/29 17:46:30;;;;;;;1.63;1.50;;;10.90;99.90;;;;;;5088496;28;20200;-77
2021/01/29 17:49:27;;;;;;;2.97;1.30;;;11.00;99.90;;;;;;5073919;28;20200;-77
2021/01/29 17:52:30;;;;;;;5.15;2.03;;;11.00;99.90;;;;;;5066423;28;20187;-77
2021/01/29 17:54:57;;;;;;;8.75;3.80;;;11.00;99.90;;;;;;5091251;28;20222;-77
2021/01/29 17:57:26;;;;;;;7.72;3.95;;;11.00;99.90;;;;;;5093922;28;20160;-76
2021/01/29 18:00:11;;;;;;;9.85;4.97;;;11.10;99.90;;;;;;5072920;28;20601;-77
2021/01/29 18:02:38;;;;;;;6.68;3.65;;;11.10;99.90;;;;;;5073166;28;20533;-76
2021/01/29 18:05:11;;;;;;;6.70;3.00;;;11.10;99.90;;;;;;5073015;28;20567;-77
2021/01/29 18:07:42;;;;;;;3.60;2.15;;;11.20;99.90;;;;;;5080810;28;20180;-77
2021/01/29 18:10:07;;;;;;;3.75;1.50;;;11.20;99.90;;;;;;5072535;28;20167;-76
2021/01/29 18:12:38;;;;;;;5.27;1.90;;;11.20;99.90;;;;;;5094661;28;20175;-76
2021/01/29 18:15:35;;;;;;;4.95;2.25;;;11.20;99.90;;;;;;5094789;28;20323;-76
2021/01/29 18:18:04;;;;;;;6.72;3.65;;;11.20;99.90;;;;;;5094096;28;20183;-76
2021/01/29 18:20:47;;;;;;;8.52;5.10;;;11.20;99.90;;;;;;5095067;28;20185;-76
2021/01/29 18:23:19;;;;;;;5.82;3.20;;;11.20;99.90;;;;;;5076955;28;20224;-76
2021/01/29 18:25:45;;;;;;;5.32;2.17;;;11.30;99.90;;;;;;5094351;28;20183;-76
2021/01/29 18:28:21;;;;;;;6.47;2.70;;;11.30;99.90;;;;;;5075862;28;20298;-77
2021/01/29 18:30:49;;;;;;;2.90;1.60;;;11.30;99.90;;;;;;5059694;28;20512;-76
2021/01/29 18:33:17;;;;;;;10.35;3.05;;;11.30;99.90;;;;;;5080469;28;20247;-77
2021/01/29 18:35:42;;;;;;;7.07;4.05;;;11.30;99.90;;;;;;5094638;28;20204;-77
2021/01/29 18:38:08;;;;;;;9.60;3.63;;;11.30;99.90;;;;;;5075567;28;20757;-76
2021/01/29 18:40:34;;;;;;;6.70;3.30;;;11.30;99.90;;;;;;5076314;28;20185;-76
2021/01/29 18:43:01;;;;;;;8.63;4.20;;;11.30;99.90;;;;;;5094469;28;20660;-77
2021/01/29 18:45:27;;;;;;;9.70;5.30;;;11.40;99.90;;;;;;5094310;28;20171;-76
2021/01/29 18:47:52;;;;;;;6.70;3.40;;;11.40;99.90;;;;;;5074497;28;20552;-77
2021/01/29 18:50:18;;;;;;;5.93;3.43;;;11.40;99.90;;;;;;5099331;28;20293;-76
2021/01/29 18:52:44;;;;;;;5.72;4.15;;;11.40;99.90;;;;;;5102041;28;20167;-77
2021/01/29 18:55:15;;;;;;;6.40;3.80;;;11.40;99.90;;;;;;5114344;28;20201;-77
2021/01/29 18:57:41;;;;;;;11.45;3.22;;;11.50;99.90;;;;;;5099932;28;20163;-76
2021/01/29 19:00:08;;;;;;;12.03;4.53;;;11.50;99.90;;;;;;5075662;28;20152;-77
2021/01/29 19:02:34;;;;;;;8.63;4.13;;;11.50;99.90;;;;;;5091683;28;20167;-76
2021/01/29 19:05:00;;;;;;;10.03;5.33;;;11.50;99.90;;;;;;5097289;28;20189;-78
2021/01/29 19:07:26;;;;;;;11.27;5.50;;;11.50;99.90;;;;;;5110323;28;20588;-79
2021/01/29 19:09:52;;;;;;;7.63;3.60;;;11.50;99.90;;;;;;5094752;28;20596;-78
2021/01/29 19:12:21;;;;;;;5.93;3.40;;;11.50;99.90;;;;;;5094631;28;20794;-78
2021/01/29 19:14:47;;;;;;;7.10;3.70;;;11.50;99.90;;;;;;5098459;28;20221;-79
2021/01/29 19:17:18;;;;;;;9.82;3.88;;;11.50;99.90;;;;;;5078424;28;20521;-79
2021/01/29 19:19:44;;;;;;;7.03;4.17;;;11.50;99.90;;;;;;5093699;28;20213;-80
2021/01/29 19:22:10;;;;;;;14.65;4.95;;;11.50;99.90;;;;;;5080672;28;20569;-78
2021/01/29 19:24:36;;;;;;;12.27;5.03;;;11.50;99.90;;;;;;5096064;28;20270;-79
2021/01/29 19:27:04;;;;;;;11.35;4.88;;;11.50;99.90;;;;;;5093596;28;20513;-80
2021/01/29 19:29:30;;;;;;;12.07;4.43;;;11.60;99.90;;;;;;5092924;28;20188;-77
2021/01/29 19:31:59;;;;;;;11.23;5.30;;;11.50;99.90;;;;;;5093456;28;20167;-77
2021/01/29 19:34:28;;;;;;;11.45;5.88;;;11.60;99.90;;;;;;5111444;28;20697;-78
2021/01/29 19:36:58;;;;;;;13.25;7.03;;;11.60;99.90;;;;;;5105672;28;20206;-77
2021/01/29 19:39:26;;;;;;;12.02;7.00;;;11.60;99.90;;;;;;5099876;28;20183;-81
2021/01/29 19:41:52;;;;;;;10.88;5.65;;;11.60;99.90;;;;;;5112132;28;20253;-80
2021/01/29 19:44:20;;;;;;;6.60;4.95;;;11.60;99.90;;;;;;5111823;28;20199;-79
2021/01/29 19:46:46;;;;;;;12.48;5.82;;;11.60;99.90;;;;;;5094163;28;20202;-80
2021/01/29 19:49:12;;;;;;;10.50;5.88;;;11.60;99.90;;;;;;5097534;28;20187;-77
2021/01/29 19:51:38;;;;;;;10.40;5.20;;;11.60;99.90;;;;;;5093449;28;20632;-77
2021/01/29 19:54:05;;;;;;;13.07;6.72;;;11.60;99.90;;;;;;5094031;28;20659;-76
2021/01/29 19:56:35;;;;;;;11.95;6.22;;;11.60;99.90;;;;;;5090864;28;20175;-77
2021/01/29 19:59:02;;;;;;;9.30;5.25;;;11.60;99.90;;;;;;5093305;28;20187;-77
2021/01/29 20:01:28;;;;;;;7.03;4.45;;;11.60;99.90;;;;;;5092619;28;20187;-77
2021/01/29 20:03:54;;;;;;;10.80;4.07;;;11.60;99.90;;;;;;5095844;28;20175;-80
2021/01/29 20:06:20;;;;;;;12.63;4.77;;;11.60;99.90;;;;;;5100737;28;20920;-79
2021/01/29 20:08:46;;;;;;;6.33;4.37;;;11.60;99.90;;;;;;5115605;28;20194;-80
2021/01/29 20:11:12;;;;;;;11.73;5.22;;;11.60;99.90;;;;;;5118628;28;20584;-79
2021/01/29 20:13:38;;;;;;;11.32;5.13;;;11.60;99.90;;;;;;5114853;28;20167;-78
2021/01/29 20:16:07;;;;;;;12.50;5.93;;;11.60;99.90;;;;;;5061535;28;20168;-78
2021/01/29 20:18:33;;;;;;;14.10;6.25;;;11.60;99.90;;;;;;5093406;28;20186;-80
2021/01/29 20:20:59;;;;;;;10.23;5.37;;;11.60;99.90;;;;;;5076533;28;20639;-78
2021/01/29 20:23:25;;;;;;;14.25;6.18;;;11.70;99.90;;;;;;5094194;28;20577;-79
2021/01/29 20:25:51;;;;;;;8.17;5.90;;;11.70;99.90;;;;;;5097658;28;20258;-78
2021/01/29 20:28:19;;;;;;;14.73;5.03;;;11.70;99.90;;;;;;5095152;28;20732;-78
2021/01/29 20:30:48;;;;;;;8.68;4.55;;;11.70;99.90;;;;;;5089635;28;20196;-79
2021/01/29 20:33:14;;;;;;;5.70;4.47;;;11.70;99.90;;;;;;5103058;28;20199;-78
2021/01/29 20:35:40;;;;;;;8.43;4.55;;;11.70;99.90;;;;;;5097799;28;20200;-79
2021/01/29 20:38:07;;;;;;;7.73;4.53;;;11.70;99.90;;;;;;5095861;28;20593;-79
2021/01/29 20:40:35;;;;;;;10.57;5.60;;;11.70;99.90;;;;;;5093321;28;20163;-79
2021/01/29 20:43:01;;;;;;;11.10;5.30;;;11.70;99.90;;;;;;5075944;28;20192;-79
2021/01/29 20:45:28;;;;;;;12.43;5.13;;;11.70;99.90;;;;;;5078061;28;20309;-79
2021/01/29 20:47:56;;;;;;;12.38;5.90;;;11.70;99.90;;;;;;5078922;28;20187;-79
2021/01/29 20:50:34;;;;;;;16.00;6.20;;;11.60;99.90;;;;;;5101487;28;20240;-81
2021/01/29 20:53:00;;;;;;;6.97;4.75;;;11.60;99.90;;;;;;5102063;28;20176;-81
2021/01/29 20:55:26;;;;;;;11.02;4.63;;;11.50;99.90;;;;;;5081202;28;20558;-81
2021/01/29 20:57:54;;;;;;;8.57;5.13;;;11.50;99.90;;;;;;5084082;28;20274;-80
2021/01/29 21:00:23;;;;;;;8.57;6.20;;;11.50;99.90;;;;;;5096531;28;20192;-78
2021/01/29 21:02:50;;;;;;;11.30;7.18;;;11.50;99.90;;;;;;5094181;28;20585;-78
2021/01/29 21:05:17;;;;;;;13.80;8.90;;;11.40;99.90;;;;;;5092759;28;20581;-79
2021/01/29 21:07:43;;;;;;;12.93;8.60;;;11.40;99.90;;;;;;5074600;28;20163;-79
2021/01/29 21:10:10;;;;;;;12.93;7.50;;;11.40;99.90;;;;;;5092462;28;20180;-79
2021/01/29 21:12:36;;;;;;;9.43;6.88;;;11.30;99.90;;;;;;5093682;28;20850;-80
2021/01/29 21:15:05;;;;;;;13.43;6.00;;;11.30;99.90;;;;;;5074907;28;20254;-77
2021/01/29 21:17:30;;;;;;;11.48;7.55;;;11.20;99.90;;;;;;5092295;28;20179;-79
2021/01/29 21:19:56;;;;;;;10.07;6.80;;;11.20;99.90;;;;;;5091708;28;20555;-79
2021/01/29 21:22:22;;;;;;;11.60;6.30;;;11.10;99.90;;;;;;5092197;28;20612;-79
2021/01/29 21:24:48;;;;;;;6.43;4.27;;;11.10;99.90;;;;;;5092509;28;20194;-79
2021/01/29 21:27:14;;;;;;;8.05;5.05;;;11.00;99.90;;;;;;5091822;28;20628;-79
2021/01/29 21:29:39;;;;;;;7.17;5.30;;;11.00;99.90;;;;;;5073960;28;20191;-79
2021/01/29 21:32:06;;;;;;;12.97;5.33;;;11.00;99.90;;;;;;5058075;28;20249;-80
2021/01/29 21:34:33;;;;;;;10.52;4.38;;;10.90;99.90;;;;;;5112124;28;20202;-80
2021/01/29 21:37:01;;;;;;;5.35;4.15;;;10.90;99.90;;;;;;5074796;28;20171;-80
2021/01/29 21:39:28;;;;;;;5.43;3.65;;;10.90;99.90;;;;;;5081007;28;20187;-80
2021/01/29 21:42:02;;;;;;;6.53;3.45;;;10.90;99.90;;;;;;5093575;28;20222;-80
2021/01/29 21:44:28;;;;;;;7.22;3.60;;;10.80;99.90;;;;;;5096316;28;20174;-80
2021/01/29 21:47:04;;;;;;;8.00;4.10;;;10.80;99.90;;;;;;5077329;28;20225;-80
2021/01/29 21:49:30;;;;;;;4.25;2.97;;;10.80;99.90;;;;;;5096189;28;20620;-80
2021/01/29 21:51:56;;;;;;;8.37;3.67;;;10.80;99.90;;;;;;5096451;28;20164;-81
2021/01/29 21:54:23;;;;;;;7.23;2.83;;;10.80;99.90;;;;;;5097454;28;20195;-81
2021/01/29 21:56:50;;;;;;;4.25;2.83;;;10.80;99.90;;;;;;5095697;28;20566;-80
2021/01/29 21:59:19;;;;;;;4.43;2.65;;;10.80;99.90;;;;;;5081440;28;20186;-78
2021/01/29 22:01:44;;;;;;;6.75;3.47;;;10.80;99.90;;;;;;5066416;28;20171;-80
2021/01/29 22:04:12;;;;;;;5.80;3.70;;;10.80;99.90;;;;;;5100529;28;20267;-80
2021/01/29 22:06:38;;;;;;;7.20;4.13;;;10.80;99.90;;;;;;5106455;28;20179;-80
